sensor_id;sensor_type;location;lat;lon;timestamp;temperature;humidity
14301;DHT22;7234;59.306;18.024;2024-01-11T00:00:04;11.80;99.90
14301;DHT22;7234;59.306;18.024;2024-01-11T00:02:31;11.90;99.90
14301;DHT22;7234;59.306;18.024;2024-01-11T00:04:59;11.90;99.90
14301;DHT22;7234;59.306;18.024;2024-01-11T00:07:25;11.60;99.90
14301;DHT22;7234;59.306;18.024;2024-01-11T00:09:52;11.30;99.90
14301;DHT22;7234;59.306;18.024;2024-01-11T00:12:19;10.50;99.90
14301;DHT22;7234;59.306;18.024;2024-01-11T00:14:46;10.90;99.90
14301;DHT22;7234;59.306;18.024;2024-01-11T00:17:15;11.10;99.90
14301;DHT22;7234;59.306;18.024;2024-01-11T00:19:42;11.40;99.90
14301;DHT22;7234;59.306;18.024;2024-01-11T00:22:09;11.50;99.90
14301;DHT22;7234;59.306;18.024;2024-01-11T00:24:36;11.40;99.90
14301;DHT22;7234;59.306;18.024;2024-01-11T00:27:04;11.10;99.90
14301;DHT22;7234;59.306;18.024;2024-01-11T00:29:31;11.00;99.90
14301;DHT22;7234;59.306;18.024;2024-01-11T00:31:58;11.00;99.90
14301;DHT22;7234;59.306;18.024;2024-01-11T00:34:26;11.00;99.90
14301;DHT22;7234;59.306;18.024;2024-01-11T00:36:53;11.20;99.90
14301;DHT22;7234;59.306;18.024;2024-01-11T00:39:20;11.60;99.90
14301;DHT22;7234;59.306;18.024;2024-01-11T00:41:47;11.50;99.90
14301;DHT22;7234;59.306;18.024;2024-01-11T00:44:14;11.30;99.90
14301;DHT22;7234;59.306;18.024;2024-01-11T00:46:41;11.50;99.90
14301;DHT22;7234;59.306;18.024;2024-01-11T00:49:08;11.60;99.90
14301;DHT22;7234;59.306;18.024;2024-01-11T00:51:37;12.00;99.90
14301;DHT22;7234;59.306;18.024;2024-01-11T00:54:05;11.90;99.90
14301;DHT22;7234;59.306;18.024;2024-01-11T00:56:32;12.00;99.90
14301;DHT22;7234;59.306;18.024;2024-01-11T00:58:59;12.10;99.90
14301;DHT22;7234;59.306;18.024;2024-01-11T01:01:26;12.40;99.90
14301;DHT22;7234;59.306;18.024;2024-01-11T01:03:53;12.60;99.90
14301;DHT22;7234;59.306;18.024;2024-01-11T01:06:20;12.70;99.90
14301;DHT22;7234;59.306;18.024;2024-01-11T01:08:48;12.80;99.90
14301;DHT22;7234;59.306;18.024;2024-01-11T01:11:15;12.90;99.90
14301;DHT22;7234;59.306;18.024;2024-01-11T01:13:42;12.90;99.90
14301;DHT22;7234;59.306;18.024;2024-01-11T01:16:09;13.10;99.90
14301;DHT22;7234;59.306;18.024;2024-01-11T01:18:36;13.20;99.90
14301;DHT22;7234;59.306;18.024;2024-01-11T01:21:03;13.20;99.90
14301;DHT22;7234;59.306;18.024;2024-01-11T01:23:32;13.10;99.90
14301;DHT22;7234;59.306;18.024;2024-01-11T01:26:01;13.40;99.90
14301;DHT22;7234;59.306;18.024;2024-01-11T01:28:27;13.60;99.90
14301;DHT22;7234;59.306;18.024;2024-01-11T01:30:54;13.20;99.90
14301;DHT22;7234;59.306;18.024;2024-01-11T01:33:21;13.20;99.90
14301;DHT22;7234;59.306;18.024;2024-01-11T01:35:48;13.10;99.90
14301;DHT22;7234;59.306;18.024;2024-01-11T01:38:15;12.60;99.90
14301;DHT22;7234;59.306;18.024;2024-01-11T01:40:43;11.90;99.90
14301;DHT22;7234;59.306;18.024;2024-01-11T01:43:11;11.80;99.90
14301;DHT22;7234;59.306;18.024;2024-01-11T01:45:39;11.60;99.90
14301;DHT22;7234;59.306;18.024;2024-01-11T01:48:06;11.50;99.90
14301;DHT22;7234;59.306;18.024;2024-01-11T01:50:34;11.30;99.90
14301;DHT22;7234;59.306;18.024;2024-01-11T01:53:01;11.40;99.90
14301;DHT22;7234;59.306;18.024;2024-01-11T01:55:29;11.40;99.90
14301;DHT22;7234;59.306;18.024;2024-01-11T01:57:56;11.30;99.90
14301;DHT22;7234;59.306;18.024;2024-01-11T02:00:26;11.60;99.90
14301;DHT22;7234;59.306;18.024;2024-01-11T02:02:55;12.00;99.90
14301;DHT22;7234;59.306;18.024;2024-01-11T02:05:23;12.00;99.90
14301;DHT22;7234;59.306;18.024;2024-01-11T02:07:51;12.20;99.90
14301;DHT22;7234;59.306;18.024;2024-01-11T02:10:19;12.00;99.90
14301;DHT22;7234;59.306;18.024;2024-01-11T02:12:46;11.30;99.90
14301;DHT22;7234;59.306;18.024;2024-01-11T02:15:14;11.50;99.90
14301;DHT22;7234;59.306;18.024;2024-01-11T02:17:42;11.70;99.90
14301;DHT22;7234;59.306;18.024;2024-01-11T02:20:10;11.90;99.90
14301;DHT22;7234;59.306;18.024;2024-01-11T02:22:40;12.00;99.90
14301;DHT22;7234;59.306;18.024;2024-01-11T02:25:09;12.40;99.90
14301;DHT22;7234;59.306;18.024;2024-01-11T02:27:45;12.30;99.90
14301;DHT22;7234;59.306;18.024;2024-01-11T02:30:13;12.60;99.90
14301;DHT22;7234;59.306;18.024;2024-01-11T02:32:41;13.00;99.90
14301;DHT22;7234;59.306;18.024;2024-01-11T02:35:10;13.00;99.90
14301;DHT22;7234;59.306;18.024;2024-01-11T02:37:37;13.00;99.90
14301;DHT22;7234;59.306;18.024;2024-01-11T02:40:07;13.00;99.90
14301;DHT22;7234;59.306;18.024;2024-01-11T02:42:36;12.70;99.90
14301;DHT22;7234;59.306;18.024;2024-01-11T02:45:03;12.40;99.90
14301;DHT22;7234;59.306;18.024;2024-01-11T02:47:30;12.50;99.90
14301;DHT22;7234;59.306;18.024;2024-01-11T02:49:57;12.10;99.90
14301;DHT22;7234;59.306;18.024;2024-01-11T02:52:24;11.80;99.90
14301;DHT22;7234;59.306;18.024;2024-01-11T02:54:51;12.00;99.90
14301;DHT22;7234;59.306;18.024;2024-01-11T02:57:18;12.20;99.90
14301;DHT22;7234;59.306;18.024;2024-01-11T02:59:47;12.50;99.90
14301;DHT22;7234;59.306;18.024;2024-01-11T03:02:13;12.50;99.90
14301;DHT22;7234;59.306;18.024;2024-01-11T03:04:41;12.20;99.90
14301;DHT22;7234;59.306;18.024;2024-01-11T03:07:08;12.30;99.90
14301;DHT22;7234;59.306;18.024;2024-01-11T03:09:35;12.50;99.90
14301;DHT22;7234;59.306;18.024;2024-01-11T03:12:03;12.40;99.90
14301;DHT22;7234;59.306;18.024;2024-01-11T03:14:32;12.30;99.90
14301;DHT22;7234;59.306;18.024;2024-01-11T03:17:00;12.10;99.90
14301;DHT22;7234;59.306;18.024;2024-01-11T03:19:27;12.20;99.90
14301;DHT22;7234;59.306;18.024;2024-01-11T03:21:54;12.00;99.90
14301;DHT22;7234;59.306;18.024;2024-01-11T03:24:21;11.80;99.90
14301;DHT22;7234;59.306;18.024;2024-01-11T03:26:49;11.70;99.90
14301;DHT22;7234;59.306;18.024;2024-01-11T03:29:16;12.00;99.90
14301;DHT22;7234;59.306;18.024;2024-01-11T03:31:42;12.10;99.90
14301;DHT22;7234;59.306;18.024;2024-01-11T03:34:11;12.20;99.90
14301;DHT22;7234;59.306;18.024;2024-01-11T03:36:38;12.40;99.90
14301;DHT22;7234;59.306;18.024;2024-01-11T03:39:06;12.20;99.90
14301;DHT22;7234;59.306;18.024;2024-01-11T03:41:33;12.10;99.90
14301;DHT22;7234;59.306;18.024;2024-01-11T03:44:00;12.00;99.90
14301;DHT22;7234;59.306;18.024;2024-01-11T03:46:27;12.20;99.90
14301;DHT22;7234;59.306;18.024;2024-01-11T03:48:54;12.10;99.90
14301;DHT22;7234;59.306;18.024;2024-01-11T03:51:24;12.00;99.90
14301;DHT22;7234;59.306;18.024;2024-01-11T03:53:51;12.10;99.90
14301;DHT22;7234;59.306;18.024;2024-01-11T03:56:18;12.10;99.90
14301;DHT22;7234;59.306;18.024;2024-01-11T03:58:45;11.90;99.90
14301;DHT22;7234;59.306;18.024;2024-01-11T04:01:12;12.00;99.90
14301;DHT22;7234;59.306;18.024;2024-01-11T04:03:39;12.10;99.90
14301;DHT22;7234;59.306;18.024;2024-01-11T04:06:08;11.90;99.90
14301;DHT22;7234;59.306;18.024;2024-01-11T04:08:39;11.80;99.90
14301;DHT22;7234;59.306;18.024;2024-01-11T04:11:06;12.00;99.90
14301;DHT22;7234;59.306;18.024;2024-01-11T04:13:33;12.00;99.90
14301;DHT22;7234;59.306;18.024;2024-01-11T04:16:04;11.70;99.90
14301;DHT22;7234;59.306;18.024;2024-01-11T04:18:31;11.60;99.90
14301;DHT22;7234;59.306;18.024;2024-01-11T04:20:58;11.60;99.90
14301;DHT22;7234;59.306;18.024;2024-01-11T04:23:25;11.60;99.90
14301;DHT22;7234;59.306;18.024;2024-01-11T04:25:53;11.60;99.90
14301;DHT22;7234;59.306;18.024;2024-01-11T04:28:20;11.80;99.90
14301;DHT22;7234;59.306;18.024;2024-01-11T04:30:47;12.10;99.90
14301;DHT22;7234;59.306;18.024;2024-01-11T04:33:14;12.40;99.90
14301;DHT22;7234;59.306;18.024;2024-01-11T04:35:41;12.50;99.90
14301;DHT22;7234;59.306;18.024;2024-01-11T04:38:08;12.30;99.90
14301;DHT22;7234;59.306;18.024;2024-01-11T04:40:36;11.90;99.90
14301;DHT22;7234;59.306;18.024;2024-01-11T04:43:04;12.00;99.90
14301;DHT22;7234;59.306;18.024;2024-01-11T04:45:33;12.00;99.90
14301;DHT22;7234;59.306;18.024;2024-01-11T04:48:00;12.30;99.90
14301;DHT22;7234;59.306;18.024;2024-01-11T04:50:27;13.10;99.90
14301;DHT22;7234;59.306;18.024;2024-01-11T04:52:54;13.80;99.90
14301;DHT22;7234;59.306;18.024;2024-01-11T04:55:21;13.90;99.90
14301;DHT22;7234;59.306;18.024;2024-01-11T04:57:48;14.00;99.90
14301;DHT22;7234;59.306;18.024;2024-01-11T05:00:17;13.90;99.90
14301;DHT22;7234;59.306;18.024;2024-01-11T05:02:44;13.40;99.90
14301;DHT22;7234;59.306;18.024;2024-01-11T05:05:11;13.40;99.90
14301;DHT22;7234;59.306;18.024;2024-01-11T05:07:38;13.50;99.90
14301;DHT22;7234;59.306;18.024;2024-01-11T05:10:06;13.30;99.90
14301;DHT22;7234;59.306;18.024;2024-01-11T05:12:33;13.00;99.90
14301;DHT22;7234;59.306;18.024;2024-01-11T05:15:01;12.50;99.90
14301;DHT22;7234;59.306;18.024;2024-01-11T05:17:30;12.30;99.90
14301;DHT22;7234;59.306;18.024;2024-01-11T05:19:57;12.30;99.90
14301;DHT22;7234;59.306;18.024;2024-01-11T05:22:23;12.50;99.90
14301;DHT22;7234;59.306;18.024;2024-01-11T05:24:50;12.70;99.90
14301;DHT22;7234;59.306;18.024;2024-01-11T05:27:17;12.80;99.90
14301;DHT22;7234;59.306;18.024;2024-01-11T05:29:44;12.90;99.90
14301;DHT22;7234;59.306;18.024;2024-01-11T05:32:11;12.90;99.90
14301;DHT22;7234;59.306;18.024;2024-01-11T05:34:40;13.20;99.90
14301;DHT22;7234;59.306;18.024;2024-01-11T05:37:07;13.10;99.90
14301;DHT22;7234;59.306;18.024;2024-01-11T05:39:34;13.20;99.90
14301;DHT22;7234;59.306;18.024;2024-01-11T05:42:01;13.20;99.90
14301;DHT22;7234;59.306;18.024;2024-01-11T05:44:28;13.50;99.90
14301;DHT22;7234;59.306;18.024;2024-01-11T05:46:55;13.60;99.90
14301;DHT22;7234;59.306;18.024;2024-01-11T05:49:22;13.50;99.90
14301;DHT22;7234;59.306;18.024;2024-01-11T05:51:50;13.40;99.90
14301;DHT22;7234;59.306;18.024;2024-01-11T05:54:17;13.50;99.90
14301;DHT22;7234;59.306;18.024;2024-01-11T05:56:44;13.50;99.90
14301;DHT22;7234;59.306;18.024;2024-01-11T05:59:11;13.40;99.90
14301;DHT22;7234;59.306;18.024;2024-01-11T06:01:40;13.40;99.90
14301;DHT22;7234;59.306;18.024;2024-01-11T06:04:08;13.50;99.90
14301;DHT22;7234;59.306;18.024;2024-01-11T06:06:35;13.60;99.90
14301;DHT22;7234;59.306;18.024;2024-01-11T06:09:03;13.90;99.90
14301;DHT22;7234;59.306;18.024;2024-01-11T06:11:30;14.10;99.90
14301;DHT22;7234;59.306;18.024;2024-01-11T06:13:57;14.00;99.90
14301;DHT22;7234;59.306;18.024;2024-01-11T06:16:26;13.90;99.90
14301;DHT22;7234;59.306;18.024;2024-01-11T06:18:52;13.70;99.90
14301;DHT22;7234;59.306;18.024;2024-01-11T06:21:19;13.40;99.90
14301;DHT22;7234;59.306;18.024;2024-01-11T06:23:46;13.40;99.90
14301;DHT22;7234;59.306;18.024;2024-01-11T06:26:16;13.60;99.90
14301;DHT22;7234;59.306;18.024;2024-01-11T06:28:43;13.90;99.90
14301;DHT22;7234;59.306;18.024;2024-01-11T06:31:10;13.90;99.90
14301;DHT22;7234;59.306;18.024;2024-01-11T06:33:37;14.00;99.90
14301;DHT22;7234;59.306;18.024;2024-01-11T06:36:06;14.10;99.90
14301;DHT22;7234;59.306;18.024;2024-01-11T06:38:33;14.20;99.90
14301;DHT22;7234;59.306;18.024;2024-01-11T06:41:00;14.20;99.90
14301;DHT22;7234;59.306;18.024;2024-01-11T06:43:28;14.10;99.90
14301;DHT22;7234;59.306;18.024;2024-01-11T06:45:55;14.10;99.90
14301;DHT22;7234;59.306;18.024;2024-01-11T06:48:22;13.90;99.90
14301;DHT22;7234;59.306;18.024;2024-01-11T06:50:50;13.70;99.90
14301;DHT22;7234;59.306;18.024;2024-01-11T06:53:16;13.90;99.90
14301;DHT22;7234;59.306;18.024;2024-01-11T06:55:43;13.90;99.90
14301;DHT22;7234;59.306;18.024;2024-01-11T06:58:10;13.90;99.90
14301;DHT22;7234;59.306;18.024;2024-01-11T07:00:39;14.10;99.90
14301;DHT22;7234;59.306;18.024;2024-01-11T07:03:08;14.10;99.90
14301;DHT22;7234;59.306;18.024;2024-01-11T07:05:36;13.80;99.90
14301;DHT22;7234;59.306;18.024;2024-01-11T07:08:03;13.80;99.90
14301;DHT22;7234;59.306;18.024;2024-01-11T07:10:30;13.80;99.90
14301;DHT22;7234;59.306;18.024;2024-01-11T07:12:58;13.80;99.90
14301;DHT22;7234;59.306;18.024;2024-01-11T07:15:25;13.60;99.90
14301;DHT22;7234;59.306;18.024;2024-01-11T07:17:53;13.60;99.90
14301;DHT22;7234;59.306;18.024;2024-01-11T07:20:20;13.60;99.90
14301;DHT22;7234;59.306;18.024;2024-01-11T07:22:47;13.90;99.90
14301;DHT22;7234;59.306;18.024;2024-01-11T07:25:14;13.70;99.90
14301;DHT22;7234;59.306;18.024;2024-01-11T07:27:42;13.50;99.90
14301;DHT22;7234;59.306;18.024;2024-01-11T07:30:11;13.40;99.90
14301;DHT22;7234;59.306;18.024;2024-01-11T07:32:38;13.40;99.90
14301;DHT22;7234;59.306;18.024;2024-01-11T07:35:08;13.50;99.90
14301;DHT22;7234;59.306;18.024;2024-01-11T07:37:36;13.70;99.90
14301;DHT22;7234;59.306;18.024;2024-01-11T07:40:04;13.90;99.90
14301;DHT22;7234;59.306;18.024;2024-01-11T07:42:35;14.00;99.90
14301;DHT22;7234;59.306;18.024;2024-01-11T07:45:03;14.10;99.90
14301;DHT22;7234;59.306;18.024;2024-01-11T07:47:30;14.40;99.90
14301;DHT22;7234;59.306;18.024;2024-01-11T07:49:57;14.30;99.90
14301;DHT22;7234;59.306;18.024;2024-01-11T07:52:27;14.20;99.90
14301;DHT22;7234;59.306;18.024;2024-01-11T07:54:54;13.90;99.90
14301;DHT22;7234;59.306;18.024;2024-01-11T07:57:22;13.60;99.90
14301;DHT22;7234;59.306;18.024;2024-01-11T07:59:49;13.60;99.90
14301;DHT22;7234;59.306;18.024;2024-01-11T08:02:16;13.60;99.90
14301;DHT22;7234;59.306;18.024;2024-01-11T08:04:43;13.50;99.90
14301;DHT22;7234;59.306;18.024;2024-01-11T08:07:10;13.50;99.90
14301;DHT22;7234;59.306;18.024;2024-01-11T08:09:39;13.50;99.90
14301;DHT22;7234;59.306;18.024;2024-01-11T08:12:10;13.40;99.90
14301;DHT22;7234;59.306;18.024;2024-01-11T08:14:38;13.30;99.90
14301;DHT22;7234;59.306;18.024;2024-01-11T08:17:07;13.30;99.90
14301;DHT22;7234;59.306;18.024;2024-01-11T08:19:34;13.50;99.90
14301;DHT22;7234;59.306;18.024;2024-01-11T08:22:01;13.80;99.90
14301;DHT22;7234;59.306;18.024;2024-01-11T08:24:28;13.90;99.90
14301;DHT22;7234;59.306;18.024;2024-01-11T08:26:57;14.00;99.90
14301;DHT22;7234;59.306;18.024;2024-01-11T08:29:24;14.10;99.90
14301;DHT22;7234;59.306;18.024;2024-01-11T08:31:51;14.10;99.90
14301;DHT22;7234;59.306;18.024;2024-01-11T08:34:20;13.70;99.90
14301;DHT22;7234;59.306;18.024;2024-01-11T08:36:47;13.30;99.90
14301;DHT22;7234;59.306;18.024;2024-01-11T08:39:14;13.00;99.90
14301;DHT22;7234;59.306;18.024;2024-01-11T08:41:41;13.10;99.90
14301;DHT22;7234;59.306;18.024;2024-01-11T08:44:10;13.10;99.90
14301;DHT22;7234;59.306;18.024;2024-01-11T08:46:37;13.30;99.90
14301;DHT22;7234;59.306;18.024;2024-01-11T08:49:04;14.00;99.90
14301;DHT22;7234;59.306;18.024;2024-01-11T08:51:35;14.50;99.90
14301;DHT22;7234;59.306;18.024;2024-01-11T08:54:02;15.00;99.90
14301;DHT22;7234;59.306;18.024;2024-01-11T08:56:29;14.80;99.90
14301;DHT22;7234;59.306;18.024;2024-01-11T08:58:56;14.50;99.90
14301;DHT22;7234;59.306;18.024;2024-01-11T09:01:25;14.40;99.90
14301;DHT22;7234;59.306;18.024;2024-01-11T09:03:52;14.20;99.90
14301;DHT22;7234;59.306;18.024;2024-01-11T09:06:21;13.70;99.90
14301;DHT22;7234;59.306;18.024;2024-01-11T09:08:47;13.60;99.90
14301;DHT22;7234;59.306;18.024;2024-01-11T09:11:16;13.60;99.90
14301;DHT22;7234;59.306;18.024;2024-01-11T09:13:43;13.30;99.90
14301;DHT22;7234;59.306;18.024;2024-01-11T09:16:14;13.10;99.90
14301;DHT22;7234;59.306;18.024;2024-01-11T09:18:42;12.70;99.90
14301;DHT22;7234;59.306;18.024;2024-01-11T09:21:11;12.70;99.90
14301;DHT22;7234;59.306;18.024;2024-01-11T09:23:38;13.10;99.90
14301;DHT22;7234;59.306;18.024;2024-01-11T09:26:05;13.50;99.90
14301;DHT22;7234;59.306;18.024;2024-01-11T09:28:32;13.50;99.90
14301;DHT22;7234;59.306;18.024;2024-01-11T09:30:59;13.20;99.90
14301;DHT22;7234;59.306;18.024;2024-01-11T09:33:27;13.20;99.90
14301;DHT22;7234;59.306;18.024;2024-01-11T09:35:55;13.30;99.90
14301;DHT22;7234;59.306;18.024;2024-01-11T09:38:22;13.50;99.90
14301;DHT22;7234;59.306;18.024;2024-01-11T09:40:56;13.80;99.90
14301;DHT22;7234;59.306;18.024;2024-01-11T09:43:27;12.90;99.90
14301;DHT22;7234;59.306;18.024;2024-01-11T09:45:54;12.80;99.90
14301;DHT22;7234;59.306;18.024;2024-01-11T09:48:23;12.40;99.90
14301;DHT22;7234;59.306;18.024;2024-01-11T09:50:52;12.50;99.90
14301;DHT22;7234;59.306;18.024;2024-01-11T09:53:22;12.50;99.90
14301;DHT22;7234;59.306;18.024;2024-01-11T09:55:52;12.70;99.90
14301;DHT22;7234;59.306;18.024;2024-01-11T09:58:20;13.20;99.90
14301;DHT22;7234;59.306;18.024;2024-01-11T10:00:53;13.50;99.90
14301;DHT22;7234;59.306;18.024;2024-01-11T10:03:21;13.40;99.90
14301;DHT22;7234;59.306;18.024;2024-01-11T10:05:49;13.20;99.90
14301;DHT22;7234;59.306;18.024;2024-01-11T10:08:18;13.40;99.90
14301;DHT22;7234;59.306;18.024;2024-01-11T10:10:47;13.60;99.90
14301;DHT22;7234;59.306;18.024;2024-01-11T10:13:14;13.70;99.90
14301;DHT22;7234;59.306;18.024;2024-01-11T10:15:41;13.70;99.90
14301;DHT22;7234;59.306;18.024;2024-01-11T10:18:08;13.80;99.90
14301;DHT22;7234;59.306;18.024;2024-01-11T10:20:36;13.80;99.90
14301;DHT22;7234;59.306;18.024;2024-01-11T10:23:04;13.60;99.90
14301;DHT22;7234;59.306;18.024;2024-01-11T10:25:31;13.50;99.90
14301;DHT22;7234;59.306;18.024;2024-01-11T10:28:00;13.50;99.90
14301;DHT22;7234;59.306;18.024;2024-01-11T10:30:27;13.60;99.90
14301;DHT22;7234;59.306;18.024;2024-01-11T10:32:54;13.70;99.90
14301;DHT22;7234;59.306;18.024;2024-01-11T10:35:25;13.30;99.90
14301;DHT22;7234;59.306;18.024;2024-01-11T10:37:52;13.10;99.90
14301;DHT22;7234;59.306;18.024;2024-01-11T10:40:21;13.00;99.90
14301;DHT22;7234;59.306;18.024;2024-01-11T10:42:51;12.90;99.90
14301;DHT22;7234;59.306;18.024;2024-01-11T10:45:20;12.90;99.90
14301;DHT22;7234;59.306;18.024;2024-01-11T10:47:51;12.70;99.90
14301;DHT22;7234;59.306;18.024;2024-01-11T10:50:23;12.60;99.90
14301;DHT22;7234;59.306;18.024;2024-01-11T10:53:02;12.90;99.90
14301;DHT22;7234;59.306;18.024;2024-01-11T10:55:31;13.10;99.90
14301;DHT22;7234;59.306;18.024;2024-01-11T10:58:01;13.20;99.90
14301;DHT22;7234;59.306;18.024;2024-01-11T11:00:31;13.10;99.90
14301;DHT22;7234;59.306;18.024;2024-01-11T11:02:59;13.20;99.90
14301;DHT22;7234;59.306;18.024;2024-01-11T11:05:28;13.30;99.90
14301;DHT22;7234;59.306;18.024;2024-01-11T11:07:56;13.30;99.90
14301;DHT22;7234;59.306;18.024;2024-01-11T11:10:25;12.90;99.90
14301;DHT22;7234;59.306;18.024;2024-01-11T11:12:54;12.70;99.90
14301;DHT22;7234;59.306;18.024;2024-01-11T11:15:23;12.80;99.90
14301;DHT22;7234;59.306;18.024;2024-01-11T11:17:52;12.50;99.90
14301;DHT22;7234;59.306;18.024;2024-01-11T11:20:19;12.20;99.90
14301;DHT22;7234;59.306;18.024;2024-01-11T11:22:49;12.20;99.90
14301;DHT22;7234;59.306;18.024;2024-01-11T11:25:30;12.30;99.90
14301;DHT22;7234;59.306;18.024;2024-01-11T11:27:57;12.20;99.90
14301;DHT22;7234;59.306;18.024;2024-01-11T11:30:26;12.20;99.90
14301;DHT22;7234;59.306;18.024;2024-01-11T11:32:55;12.40;99.90
14301;DHT22;7234;59.306;18.024;2024-01-11T11:35:23;12.50;99.90
14301;DHT22;7234;59.306;18.024;2024-01-11T11:37:55;12.50;99.90
14301;DHT22;7234;59.306;18.024;2024-01-11T11:40:32;12.40;99.90
14301;DHT22;7234;59.306;18.024;2024-01-11T11:43:02;12.30;99.90
14301;DHT22;7234;59.306;18.024;2024-01-11T11:45:31;12.20;99.90
14301;DHT22;7234;59.306;18.024;2024-01-11T11:47:59;12.00;99.90
14301;DHT22;7234;59.306;18.024;2024-01-11T11:50:26;12.20;99.90
14301;DHT22;7234;59.306;18.024;2024-01-11T11:52:57;12.50;99.90
14301;DHT22;7234;59.306;18.024;2024-01-11T11:55:25;12.80;99.90
14301;DHT22;7234;59.306;18.024;2024-01-11T11:57:52;13.00;99.90
14301;DHT22;7234;59.306;18.024;2024-01-11T12:00:19;13.60;99.90
14301;DHT22;7234;59.306;18.024;2024-01-11T12:02:47;14.50;99.90
14301;DHT22;7234;59.306;18.024;2024-01-11T12:05:16;15.60;99.90
14301;DHT22;7234;59.306;18.024;2024-01-11T12:07:45;17.40;99.90
14301;DHT22;7234;59.306;18.024;2024-01-11T12:10:13;18.90;99.70
14301;DHT22;7234;59.306;18.024;2024-01-11T12:12:40;19.70;98.40
14301;DHT22;7234;59.306;18.024;2024-01-11T12:15:08;20.00;97.40
14301;DHT22;7234;59.306;18.024;2024-01-11T12:17:35;19.80;96.30
14301;DHT22;7234;59.306;18.024;2024-01-11T12:22:34;18.70;95.90
14301;DHT22;7234;59.306;18.024;2024-01-11T12:25:02;18.30;96.10
14301;DHT22;7234;59.306;18.024;2024-01-11T12:27:30;18.10;96.20
14301;DHT22;7234;59.306;18.024;2024-01-11T12:29:57;18.00;95.70
14301;DHT22;7234;59.306;18.024;2024-01-11T12:32:24;17.90;95.70
14301;DHT22;7234;59.306;18.024;2024-01-11T12:34:52;18.10;95.60
14301;DHT22;7234;59.306;18.024;2024-01-11T12:37:20;17.40;94.50
14301;DHT22;7234;59.306;18.024;2024-01-11T12:39:48;16.80;95.10
14301;DHT22;7234;59.306;18.024;2024-01-11T12:42:15;16.50;94.90
14301;DHT22;7234;59.306;18.024;2024-01-11T12:44:42;16.20;95.20
14301;DHT22;7234;59.306;18.024;2024-01-11T12:47:10;15.70;95.50
14301;DHT22;7234;59.306;18.024;2024-01-11T12:49:37;15.60;96.20
14301;DHT22;7234;59.306;18.024;2024-01-11T12:52:04;15.60;95.90
14301;DHT22;7234;59.306;18.024;2024-01-11T12:54:32;15.50;96.00
14301;DHT22;7234;59.306;18.024;2024-01-11T12:57:02;15.30;96.00
14301;DHT22;7234;59.306;18.024;2024-01-11T12:59:29;15.20;96.00
14301;DHT22;7234;59.306;18.024;2024-01-11T13:01:56;15.40;96.50
14301;DHT22;7234;59.306;18.024;2024-01-11T13:04:25;15.40;96.50
14301;DHT22;7234;59.306;18.024;2024-01-11T13:09:21;15.10;95.80
14301;DHT22;7234;59.306;18.024;2024-01-11T13:11:48;14.70;95.80
14301;DHT22;7234;59.306;18.024;2024-01-11T13:14:17;14.70;96.20
14301;DHT22;7234;59.306;18.024;2024-01-11T13:16:46;14.40;96.00
14301;DHT22;7234;59.306;18.024;2024-01-11T13:19:14;14.10;96.10
14301;DHT22;7234;59.306;18.024;2024-01-11T13:21:41;14.30;96.40
14301;DHT22;7234;59.306;18.024;2024-01-11T13:24:08;14.50;96.50
14301;DHT22;7234;59.306;18.024;2024-01-11T13:26:35;14.30;96.50
14301;DHT22;7234;59.306;18.024;2024-01-11T13:29:03;14.50;96.50
14301;DHT22;7234;59.306;18.024;2024-01-11T13:31:32;14.70;96.80
14301;DHT22;7234;59.306;18.024;2024-01-11T13:33:59;14.60;96.40
14301;DHT22;7234;59.306;18.024;2024-01-11T13:36:26;14.30;96.30
14301;DHT22;7234;59.306;18.024;2024-01-11T13:38:54;14.30;96.40
14301;DHT22;7234;59.306;18.024;2024-01-11T13:41:21;14.10;96.30
14301;DHT22;7234;59.306;18.024;2024-01-11T13:43:48;14.20;96.60
14301;DHT22;7234;59.306;18.024;2024-01-11T13:46:15;14.30;96.80
14301;DHT22;7234;59.306;18.024;2024-01-11T13:48:46;14.20;96.80
14301;DHT22;7234;59.306;18.024;2024-01-11T13:51:13;14.20;96.90
14301;DHT22;7234;59.306;18.024;2024-01-11T13:53:41;14.10;96.70
14301;DHT22;7234;59.306;18.024;2024-01-11T13:56:08;14.30;96.90
14301;DHT22;7234;59.306;18.024;2024-01-11T13:58:35;14.30;96.80
14301;DHT22;7234;59.306;18.024;2024-01-11T14:01:02;14.30;96.90
14301;DHT22;7234;59.306;18.024;2024-01-11T14:03:29;13.90;96.60
14301;DHT22;7234;59.306;18.024;2024-01-11T14:05:58;14.00;97.10
14301;DHT22;7234;59.306;18.024;2024-01-11T14:08:25;14.00;97.10
14301;DHT22;7234;59.306;18.024;2024-01-11T14:10:52;14.10;97.20
14301;DHT22;7234;59.306;18.024;2024-01-11T14:13:20;14.10;97.20
14301;DHT22;7234;59.306;18.024;2024-01-11T14:15:47;14.10;97.50
14301;DHT22;7234;59.306;18.024;2024-01-11T14:18:16;14.40;97.20
14301;DHT22;7234;59.306;18.024;2024-01-11T14:20:43;14.70;97.50
14301;DHT22;7234;59.306;18.024;2024-01-11T14:23:11;14.80;97.40
14301;DHT22;7234;59.306;18.024;2024-01-11T14:25:41;15.00;97.30
14301;DHT22;7234;59.306;18.024;2024-01-11T14:28:08;14.80;96.80
14301;DHT22;7234;59.306;18.024;2024-01-11T14:30:35;15.10;97.50
14301;DHT22;7234;59.306;18.024;2024-01-11T14:33:02;15.10;97.10
14301;DHT22;7234;59.306;18.024;2024-01-11T14:35:29;15.30;97.60
14301;DHT22;7234;59.306;18.024;2024-01-11T14:37:56;15.50;97.00
14301;DHT22;7234;59.306;18.024;2024-01-11T14:40:25;15.50;97.10
14301;DHT22;7234;59.306;18.024;2024-01-11T14:42:52;15.30;97.10
14301;DHT22;7234;59.306;18.024;2024-01-11T14:45:19;15.10;97.10
14301;DHT22;7234;59.306;18.024;2024-01-11T14:47:46;14.80;97.50
14301;DHT22;7234;59.306;18.024;2024-01-11T14:50:13;14.90;97.50
14301;DHT22;7234;59.306;18.024;2024-01-11T14:52:40;14.90;97.70
14301;DHT22;7234;59.306;18.024;2024-01-11T14:55:08;15.00;97.60
14301;DHT22;7234;59.306;18.024;2024-01-11T14:57:39;14.80;97.60
14301;DHT22;7234;59.306;18.024;2024-01-11T15:00:07;14.90;97.60
14301;DHT22;7234;59.306;18.024;2024-01-11T15:02:35;14.90;97.80
14301;DHT22;7234;59.306;18.024;2024-01-11T15:05:02;15.10;98.40
14301;DHT22;7234;59.306;18.024;2024-01-11T15:07:30;15.40;97.80
14301;DHT22;7234;59.306;18.024;2024-01-11T15:09:58;15.30;97.90
14301;DHT22;7234;59.306;18.024;2024-01-11T15:12:25;15.50;97.90
14301;DHT22;7234;59.306;18.024;2024-01-11T15:14:53;15.50;97.70
14301;DHT22;7234;59.306;18.024;2024-01-11T15:17:20;15.60;97.70
14301;DHT22;7234;59.306;18.024;2024-01-11T15:19:47;15.50;97.60
14301;DHT22;7234;59.306;18.024;2024-01-11T15:22:14;15.30;97.70
14301;DHT22;7234;59.306;18.024;2024-01-11T15:24:41;15.20;97.90
14301;DHT22;7234;59.306;18.024;2024-01-11T15:27:09;15.10;98.00
14301;DHT22;7234;59.306;18.024;2024-01-11T15:29:36;15.00;98.10
14301;DHT22;7234;59.306;18.024;2024-01-11T15:32:05;15.10;98.40
14301;DHT22;7234;59.306;18.024;2024-01-11T15:34:35;15.10;98.30
14301;DHT22;7234;59.306;18.024;2024-01-11T15:37:02;15.00;98.40